Pagina principale
METAR-TAF:

METAR-TAF

Aeroporti :

Tabarka, Tunisia

latitudine: 36-57N, longitudine: 008-45E, altezza: 20 m

Osservazione

Il bollettino è stato emesso 46 minuti fa, alle 10:00 UTC
Vento 7 kt da ovest/sud-ovest
Temperature 16°C
Umidità 72%
Pressione 1014 hPa
Visibilità 10 km o più
Nubi sparse ad un'altezza di 2000 ft
Nubi sparse ad un'altezza di 3000 ft

METAR: DTKA 091000Z 25007KT 9999 SCT020 SCT030 16/11 Q1014 NOSIG

Ora: 11:46 (10:46 UTC)

Previsione

Il bollettino è stato emesso 1 ora e 46 minuti fa, alle 09:00 UTC
Previsione valida dal 09 alle 10 UTC al 09 alle 19 UTC
Vento 8 kt da ovest
Visibilità 10 km o più
Nubi sparse ad un'altezza di 2000 ft
Nubi sparse ad un'altezza di 3000 ft
Probabilità 30% :
Temporaneamente
dal 09 alle 11 UTC al 09 alle 14 UTC
Poco nuvoloso ad un'altezza di 2300 ft, Cumulonembo.
temporale, pioggia debole

TAF: DTKA 090900Z 0910/0919 27008KT 9999 SCT020 SCT030 PROB30 TEMPO 0911/0914 -TSRA FEW023CB

Osservazioni e previsioni meteorologiche di più di 4000 aeroporti (messaggi METAR e TAF).

Le stazioni disponibili sono rappresentate dai dischi gialli e rossi sulla carta.

Puntare il mouse per vedere il nome della stazione.

Clicca sopra per visualizzare le osservazioni e previsioni meteorologiche.

Per cambiare la mappa : fare clic sui pulsanti verdi con una croce nera per ingrandire, il pulsante verde con un trattino per diminuire, o sulla freccia verde per le mappe adiacenti.


METAR-TAF: